Time;durP1;ratioP1;P1;durP2;ratioP2;P2;SDS_P1;SDS_P2;PMS_P1;PMS_P2;Temp;Humidity;BMP_temperature;BMP_pressure;BME280_temperature;BME280_humidity;BME280_pressure;Samples;Min_cycle;Max_cycle;Signal;HPM_P1;HPM_P2
2023/03/21 00:00:32;;;;;;;;;;;;;;;16.89;64.98;101574.81;2062358;28;19928;-71
2023/03/21 00:01:35;;;;;;;;;;;;;;;16.90;65.09;101579.13;2057756;28;19926;-70
2023/03/21 00:02:37;;;;;;;;;;;;;;;16.89;65.10;101566.63;2056301;28;19922;-71
2023/03/21 00:03:41;;;;;;;;;;;;;;;16.89;64.98;101572.06;2055689;28;19952;-71
2023/03/21 00:04:44;;;;;;;;;;;;;;;16.89;64.97;101566.63;2064332;28;20382;-70
2023/03/21 00:05:55;;;;;;;;;;;;;;;16.89;65.24;101572.06;2064390;28;19925;-70
2023/03/21 00:06:56;;;;;;;;;;;;;;;16.89;64.78;101572.06;2067708;28;19925;-70
2023/03/21 00:07:59;;;;;;;;;;;;;;;16.89;64.66;101572.06;2066883;28;20489;-69
2023/03/21 00:09:03;;;;;;;;;;;;;;;16.89;65.04;101567.41;2059371;28;20197;-70
2023/03/21 00:10:06;;;;;;;;;;;;;;;16.90;64.85;101565.47;2059089;28;20516;-71
2023/03/21 00:11:17;;;;;;;;;;;;;;;16.89;64.96;101566.63;2064217;28;20397;-70
2023/03/21 00:12:20;;;;;;;;;;;;;;;16.88;64.88;101565.84;2067864;28;19925;-70
2023/03/21 00:13:21;;;;;;;;;;;;;;;16.89;65.04;101561.16;2060007;28;19969;-70
2023/03/21 00:14:24;;;;;;;;;;;;;;;16.89;64.90;101561.16;2057121;28;20316;-70
2023/03/21 00:15:29;;;;;;;;;;;;;;;16.88;64.96;101563.13;2057800;28;20357;-70
2023/03/21 00:16:44;;;;;;;;;;;;;;;16.88;65.04;101562.31;2059399;28;19984;-70
2023/03/21 00:17:49;;;;;;;;;;;;;;;16.88;64.69;101571.31;2069168;28;19925;-70
2023/03/21 00:18:52;;;;;;;;;;;;;;;16.88;64.71;101562.31;2063378;28;19932;-70
2023/03/21 00:19:55;;;;;;;;;;;;;;;16.88;64.88;101565.06;2064013;28;19925;-70
2023/03/21 00:20:57;;;;;;;;;;;;;;;16.88;64.87;101563.13;2072600;28;19992;-72
2023/03/21 00:22:20;;;;;;;;;;;;;;;16.88;64.74;101565.84;2065673;28;20032;-72
2023/03/21 00:23:21;;;;;;;;;;;;;;;16.88;64.75;101559.59;2068192;28;19979;-72
2023/03/21 00:24:24;;;;;;;;;;;;;;;16.88;64.97;101565.06;2068861;28;19921;-73
2023/03/21 00:25:26;;;;;;;;;;;;;;;16.89;64.62;101555.72;2063299;28;20406;-73
2023/03/21 00:26:29;;;;;;;;;;;;;;;16.88;64.83;101556.88;2061024;28;19926;-73
2023/03/21 00:27:32;;;;;;;;;;;;;;;16.88;64.77;101556.88;2058924;28;20071;-73
2023/03/21 00:28:56;;;;;;;;;;;;;;;16.88;64.46;101554.16;2067864;28;19930;-73
2023/03/21 00:29:58;;;;;;;;;;;;;;;16.88;64.59;101560.41;2070287;28;19929;-73
2023/03/21 00:31:03;;;;;;;;;;;;;;;16.88;64.79;101557.66;2067303;28;20401;-73
2023/03/21 00:32:04;;;;;;;;;;;;;;;16.87;64.54;101549.84;2065811;28;19925;-73
2023/03/21 00:33:07;;;;;;;;;;;;;;;16.87;64.63;101550.63;2062778;28;19925;-73
2023/03/21 00:34:23;;;;;;;;;;;;;;;16.87;64.63;101556.06;2066624;28;19937;-73
2023/03/21 00:35:37;;;;;;;;;;;;;;;16.88;64.65;101554.16;2066465;28;20403;-73
2023/03/21 00:37:01;;;;;;;;;;;;;;;16.88;64.84;101548.69;2066746;28;19929;-73
2023/03/21 00:38:03;;;;;;;;;;;;;;;16.88;64.71;101548.69;2063010;28;19930;-73
2023/03/21 00:39:08;;;;;;;;;;;;;;;16.88;64.74;101548.69;2072006;28;19955;-73
2023/03/21 00:40:11;;;;;;;;;;;;;;;16.88;64.70;101551.41;2073461;28;20016;-73
2023/03/21 00:41:26;;;;;;;;;;;;;;;16.87;64.65;101553.34;2071890;28;20024;-74
2023/03/21 00:42:42;;;;;;;;;;;;;;;16.87;64.61;101547.91;2070358;28;19968;-73
2023/03/21 00:43:45;;;;;;;;;;;;;;;16.88;64.53;101548.69;2067040;28;19964;-73
2023/03/21 00:44:47;;;;;;;;;;;;;;;16.87;64.33;101547.13;2068584;28;20336;-72
2023/03/21 00:45:50;;;;;;;;;;;;;;;16.87;64.56;101547.13;2068924;28;20013;-72
2023/03/21 00:46:53;;;;;;;;;;;;;;;16.87;64.74;101542.44;2065234;28;19972;-72
2023/03/21 00:48:09;;;;;;;;;;;;;;;16.87;64.53;101542.44;2070559;28;20353;-72
2023/03/21 00:49:11;;;;;;;;;;;;;;;16.82;64.45;101533.78;2067437;28;19925;-72
2023/03/21 00:50:16;;;;;;;;;;;;;;;16.87;64.40;101538.94;2065575;28;20023;-72
2023/03/21 00:51:24;;;;;;;;;;;;;;;16.86;64.37;101542.81;2062460;28;19922;-72
2023/03/21 00:52:27;;;;;;;;;;;;;;;16.87;64.47;101541.66;2071687;28;19925;-72
2023/03/21 00:53:41;;;;;;;;;;;;;;;16.87;64.22;101536.22;2070840;28;19951;-72
2023/03/21 00:54:43;;;;;;;;;;;;;;;16.87;64.44;101538.94;2056921;28;20349;-72
2023/03/21 00:55:45;;;;;;;;;;;;;;;16.86;64.37;101535.41;2058454;28;20473;-72
2023/03/21 00:56:49;;;;;;;;;;;;;;;16.86;64.36;101540.88;2062367;28;19956;-72
2023/03/21 00:57:51;;;;;;;;;;;;;;;16.87;64.35;101538.94;2062335;28;20426;-70
2023/03/21 00:59:03;;;;;;;;;;;;;;;16.87;64.14;101541.66;2064176;28;20025;-69
2023/03/21 01:00:06;;;;;;;;;;;;;;;16.87;64.40;101536.22;2060582;28;20028;-69
2023/03/21 01:01:10;;;;;;;;;;;;;;;16.86;64.27;101535.41;2064814;28;20380;-69
2023/03/21 01:02:21;;;;;;;;;;;;;;;16.86;64.29;101540.88;2065410;28;19960;-69
2023/03/21 01:03:25;;;;;;;;;;;;;;;16.86;64.20;101540.06;2068304;28;19925;-69
2023/03/21 01:04:27;;;;;;;;;;;;;;;16.86;64.17;101529.16;2066697;28;19926;-69
2023/03/21 01:06:47;;;;;;;;;;;;;;;16.86;64.41;101537.34;2064074;28;20406;-69
2023/03/21 01:07:51;;;;;;;;;;;;;;;16.86;64.46;101535.41;2070415;28;19979;-69
2023/03/21 01:08:54;;;;;;;;;;;;;;;16.86;64.51;101534.63;2071730;28;20004;-69
2023/03/21 01:09:56;;;;;;;;;;;;;;;16.87;64.09;101536.22;2068102;28;20468;-69
2023/03/21 01:11:04;;;;;;;;;;;;;;;16.87;64.13;101530.75;2057536;28;20312;-70
2023/03/21 01:12:07;;;;;;;;;;;;;;;16.86;64.36;101534.63;2066406;28;19952;-70
2023/03/21 01:13:11;;;;;;;;;;;;;;;16.86;64.29;101529.97;2066989;28;19925;-70
2023/03/21 01:14:15;;;;;;;;;;;;;;;16.86;64.06;101532.69;2061411;28;19929;-70
2023/03/21 01:15:23;;;;;;;;;;;;;;;16.85;64.26;101527.59;2064488;28;19936;-70
2023/03/21 01:16:26;;;;;;;;;;;;;;;16.86;64.28;101529.16;2071424;28;20322;-70
2023/03/21 01:17:30;;;;;;;;;;;;;;;16.87;64.32;101530.75;2070413;28;20497;-70
2023/03/21 01:18:34;;;;;;;;;;;;;;;16.86;64.04;101527.22;2056967;28;19925;-70
2023/03/21 01:19:35;;;;;;;;;;;;;;;16.86;64.29;101529.16;2065694;28;19930;-70
2023/03/21 01:20:54;;;;;;;;;;;;;;;16.86;64.34;101518.25;2064516;28;20375;-70
2023/03/21 01:21:56;;;;;;;;;;;;;;;16.86;64.19;101531.91;2064997;28;20793;-70
2023/03/21 01:22:59;;;;;;;;;;;;;;;16.86;64.06;101523.72;2065123;28;20349;-69
2023/03/21 01:24:01;;;;;;;;;;;;;;;16.86;64.07;101526.44;2069993;28;19926;-69
2023/03/21 01:25:04;;;;;;;;;;;;;;;16.86;64.10;101527.22;2071329;28;19921;-69
2023/03/21 01:26:23;;;;;;;;;;;;;;;16.87;64.06;101525.31;2065165;28;19925;-69
2023/03/21 01:27:24;;;;;;;;;;;;;;;16.86;64.13;101529.16;2069005;28;20321;-69
2023/03/21 01:28:28;;;;;;;;;;;;;;;16.86;63.96;101527.22;2064665;28;20349;-69
2023/03/21 01:29:31;;;;;;;;;;;;;;;16.87;64.02;101528.03;2057797;28;20391;-69
2023/03/21 01:30:33;;;;;;;;;;;;;;;16.87;64.04;101528.03;2065083;28;20470;-69
2023/03/21 01:31:43;;;;;;;;;;;;;;;16.86;64.14;101523.72;2070507;28;19944;-69
2023/03/21 01:32:46;;;;;;;;;;;;;;;16.86;63.78;101523.72;2063539;28;20373;-69
2023/03/21 01:33:49;;;;;;;;;;;;;;;16.86;63.89;101523.72;2054310;28;20415;-70
2023/03/21 01:34:51;;;;;;;;;;;;;;;16.87;63.92;101525.31;2065679;28;20380;-69
2023/03/21 01:35:56;;;;;;;;;;;;;;;16.86;64.08;101529.16;2069212;28;19941;-70
2023/03/21 01:37:13;;;;;;;;;;;;;;;16.86;64.18;101515.53;2070167;28;20346;-70
2023/03/21 01:38:21;;;;;;;;;;;;;;;16.86;64.04;101518.25;2056021;28;20033;-70
2023/03/21 01:39:23;;;;;;;;;;;;;;;16.86;63.89;101513.59;2050648;28;19980;-70
2023/03/21 01:40:26;;;;;;;;;;;;;;;16.85;64.06;101513.97;2055065;28;20498;-69
2023/03/21 01:41:52;;;;;;;;;;;;;;;16.85;64.00;101514.75;2059609;28;20003;-70
2023/03/21 01:43:01;;;;;;;;;;;;;;;16.85;63.76;101511.25;2057520;28;20014;-70
2023/03/21 01:44:04;;;;;;;;;;;;;;;16.86;63.67;101515.53;2041838;28;20323;-70
2023/03/21 01:45:32;;;;;;;;;;;;;;;16.85;63.71;101513.97;2063451;28;19977;-69
2023/03/21 01:46:38;;;;;;;;;;;;;;;16.85;63.85;101506.59;2064895;28;19936;-69
2023/03/21 01:48:28;;;;;;;;;;;;;;;16.86;64.14;101512.81;2064381;28;20000;-69
2023/03/21 01:49:37;;;;;;;;;;;;;;;16.86;63.57;101510.06;2078134;28;20448;-70
2023/03/21 01:51:00;;;;;;;;;;;;;;;16.86;63.66;101501.91;2069088;28;20016;-70
2023/03/21 01:52:26;;;;;;;;;;;;;;;16.85;63.75;101506.59;2070143;28;19952;-69
2023/03/21 01:53:50;;;;;;;;;;;;;;;16.85;64.03;101500.31;2066368;28;19968;-69
2023/03/21 01:54:55;;;;;;;;;;;;;;;16.85;64.04;101509.31;2061457;28;20346;-69
2023/03/21 01:55:57;;;;;;;;;;;;;;;16.85;63.58;101497.59;2053125;28;19922;-69
2023/03/21 01:57:21;;;;;;;;;;;;;;;16.86;63.83;101507.34;2051678;28;19978;-69
2023/03/21 01:58:28;;;;;;;;;;;;;;;16.86;63.73;101499.16;2059828;28;20477;-70
2023/03/21 01:59:40;;;;;;;;;;;;;;;16.85;63.90;101495.66;2076004;28;19925;-69
2023/03/21 02:00:58;;;;;;;;;;;;;;;16.86;63.77;101499.16;2068171;28;20216;-70
2023/03/21 02:02:12;;;;;;;;;;;;;;;16.86;63.73;101493.72;2064610;28;19976;-70
2023/03/21 02:03:28;;;;;;;;;;;;;;;16.85;63.41;101500.31;2064755;28;19960;-70
2023/03/21 02:05:04;;;;;;;;;;;;;;;16.85;63.65;101497.59;2036406;28;19930;-70
2023/03/21 02:06:08;;;;;;;;;;;;;;;16.86;63.62;101493.72;2054499;28;19926;-70
2023/03/21 02:07:16;;;;;;;;;;;;;;;16.85;63.79;101486.69;2054583;28;20342;-70
2023/03/21 02:08:27;;;;;;;;;;;;;;;16.84;63.65;101494.06;2041878;28;20446;-70
2023/03/21 02:09:46;;;;;;;;;;;;;;;16.85;63.58;101489.41;2051730;28;19929;-70
2023/03/21 02:10:51;;;;;;;;;;;;;;;16.86;63.63;101485.53;2047625;28;19933;-70
2023/03/21 02:12:11;;;;;;;;;;;;;;;16.86;63.36;101485.53;2048589;28;19973;-69
2023/03/21 02:13:13;;;;;;;;;;;;;;;16.86;63.55;101485.53;2039687;29;19922;-70
2023/03/21 02:14:18;;;;;;;;;;;;;;;16.86;63.44;101482.81;2038649;28;19942;-69
2023/03/21 02:15:34;;;;;;;;;;;;;;;16.85;63.39;101478.50;2043161;28;19931;-70
2023/03/21 02:16:51;;;;;;;;;;;;;;;16.86;63.38;101488.25;2045790;28;19972;-70
2023/03/21 02:17:55;;;;;;;;;;;;;;;16.85;63.53;101478.50;2055940;28;20009;-70
2023/03/21 02:19:30;;;;;;;;;;;;;;;16.85;63.40;101478.50;2054050;28;20344;-70
2023/03/21 02:21:02;;;;;;;;;;;;;;;16.85;63.54;101481.25;2049716;28;19988;-69
2023/03/21 02:22:27;;;;;;;;;;;;;;;16.85;63.46;101473.06;2052124;28;20775;-69
2023/03/21 02:23:41;;;;;;;;;;;;;;;16.85;63.34;101473.06;2051252;28;20229;-69
2023/03/21 02:24:53;;;;;;;;;;;;;;;16.85;63.70;101473.06;2056303;28;20462;-70
2023/03/21 02:26:21;;;;;;;;;;;;;;;16.84;63.26;101472.25;2054200;28;20395;-70
2023/03/21 02:27:30;;;;;;;;;;;;;;;16.84;63.65;101475.00;2056084;28;20036;-70
2023/03/21 02:28:38;;;;;;;;;;;;;;;16.85;63.26;101478.50;2049704;28;20386;-70
2023/03/21 02:29:54;;;;;;;;;;;;;;;16.84;63.48;101469.53;2048031;28;20020;-69
2023/03/21 02:31:18;;;;;;;;;;;;;;;16.85;63.29;101473.06;2063178;28;20374;-70
2023/03/21 02:32:29;;;;;;;;;;;;;;;16.85;63.48;101467.59;2053963;28;19972;-70
2023/03/21 02:33:49;;;;;;;;;;;;;;;16.84;63.18;101460.59;2045054;28;19926;-70
2023/03/21 02:35:00;;;;;;;;;;;;;;;16.84;63.39;101464.06;2049110;28;20326;-70
2023/03/21 02:36:16;;;;;;;;;;;;;;;16.84;63.15;101461.34;2046479;29;19984;-70
2023/03/21 02:37:22;;;;;;;;;;;;;;;16.84;63.17;101461.34;2046671;28;19926;-70
2023/03/21 02:38:39;;;;;;;;;;;;;;;16.84;63.39;101455.13;2050897;28;20017;-70
2023/03/21 02:39:49;;;;;;;;;;;;;;;16.83;63.46;101462.50;2055470;28;19948;-70
2023/03/21 02:40:53;;;;;;;;;;;;;;;16.84;63.55;101460.59;2048520;28;20362;-70
2023/03/21 02:42:03;;;;;;;;;;;;;;;16.84;63.35;101460.59;2047587;28;20332;-70
2023/03/21 02:43:09;;;;;;;;;;;;;;;16.84;63.44;101453.16;2053003;28;20017;-70
2023/03/21 02:44:27;;;;;;;;;;;;;;;16.84;63.40;101461.34;2060362;28;20352;-70
2023/03/21 02:45:32;;;;;;;;;;;;;;;16.83;63.40;101459.00;2050268;28;19928;-70
2023/03/21 02:46:38;;;;;;;;;;;;;;;16.83;63.15;101453.53;2043530;28;19930;-70
2023/03/21 02:47:51;;;;;;;;;;;;;;;16.83;63.29;101450.81;2048193;28;19926;-70
2023/03/21 02:48:57;;;;;;;;;;;;;;;16.83;63.49;101448.09;2039828;28;19923;-70
2023/03/21 02:50:04;;;;;;;;;;;;;;;16.83;63.47;101445.34;2051769;28;19926;-73
2023/03/21 02:51:08;;;;;;;;;;;;;;;16.82;63.39;101447.31;2056860;28;19965;-73
2023/03/21 02:52:12;;;;;;;;;;;;;;;16.82;63.25;101452.78;2048358;28;19969;-73
2023/03/21 02:53:28;;;;;;;;;;;;;;;16.83;63.21;101448.09;2047630;28;20051;-73
2023/03/21 02:54:32;;;;;;;;;;;;;;;16.83;63.19;101445.34;2047641;28;20442;-73
2023/03/21 02:55:51;;;;;;;;;;;;;;;16.82;63.27;101447.31;2048809;28;19965;-73
2023/03/21 02:56:55;;;;;;;;;;;;;;;16.83;63.28;101443.44;2050477;28;19948;-73
2023/03/21 02:57:59;;;;;;;;;;;;;;;16.82;62.92;101450.03;2056508;28;19925;-73
2023/03/21 02:59:15;;;;;;;;;;;;;;;16.82;63.06;101451.97;2053937;28;20315;-73
2023/03/21 03:00:20;;;;;;;;;;;;;;;16.84;63.09;101449.66;2038779;28;20361;-73
2023/03/21 03:01:24;;;;;;;;;;;;;;;16.83;63.08;101450.81;2044331;28;20491;-73
2023/03/21 03:02:29;;;;;;;;;;;;;;;16.83;63.28;101448.09;2045285;28;20016;-73
2023/03/21 03:03:31;;;;;;;;;;;;;;;16.82;63.06;101451.97;2038962;28;19933;-73
2023/03/21 03:04:38;;;;;;;;;;;;;;;16.82;63.17;101447.31;2049323;28;19926;-73
2023/03/21 03:05:42;;;;;;;;;;;;;;;16.82;63.26;101441.84;2053334;28;20387;-73
2023/03/21 03:06:52;;;;;;;;;;;;;;;16.82;63.35;101451.97;2047497;28;20307;-73
2023/03/21 03:07:59;;;;;;;;;;;;;;;16.82;63.11;101443.78;2059148;28;19949;-72
2023/03/21 03:09:17;;;;;;;;;;;;;;;16.81;63.10;101440.28;2068103;28;19948;-72
2023/03/21 03:10:26;;;;;;;;;;;;;;;16.81;63.22;101445.72;2067413;28;19930;-73
2023/03/21 03:11:31;;;;;;;;;;;;;;;16.81;63.08;101439.50;2060077;28;20849;-73
2023/03/21 03:12:37;;;;;;;;;;;;;;;16.81;62.82;101444.97;2060546;28;20639;-72
2023/03/21 03:13:53;;;;;;;;;;;;;;;16.82;63.31;101435.59;2053731;28;20319;-70
2023/03/21 03:15:01;;;;;;;;;;;;;;;16.80;63.27;101441.44;2048755;28;20355;-70
2023/03/21 03:16:14;;;;;;;;;;;;;;;16.82;63.25;101435.59;2048576;28;19926;-70
2023/03/21 03:17:25;;;;;;;;;;;;;;;16.81;63.09;101444.97;2057492;28;20373;-70
2023/03/21 03:18:33;;;;;;;;;;;;;;;16.82;62.94;101446.53;2060092;28;19933;-70
2023/03/21 03:19:45;;;;;;;;;;;;;;;16.82;63.00;101441.06;2047929;28;19926;-70
2023/03/21 03:20:59;;;;;;;;;;;;;;;16.81;62.91;101440.28;2053420;28;19926;-72
2023/03/21 03:22:05;;;;;;;;;;;;;;;16.81;63.25;101436.78;2060076;28;19980;-72
2023/03/21 03:23:17;;;;;;;;;;;;;;;16.82;62.90;101444.59;2054457;28;19964;-72
2023/03/21 03:24:25;;;;;;;;;;;;;;;16.81;62.93;101434.81;2057434;28;19926;-72
2023/03/21 03:25:30;;;;;;;;;;;;;;;16.82;62.70;101435.59;2061159;28;20379;-72
2023/03/21 03:26:47;;;;;;;;;;;;;;;16.81;63.21;101434.81;2058455;28;20423;-69
2023/03/21 03:27:50;;;;;;;;;;;;;;;16.81;63.01;101439.50;2063873;28;20000;-69
2023/03/21 03:28:54;;;;;;;;;;;;;;;16.81;63.05;101434.03;2070514;28;20492;-69
2023/03/21 03:29:58;;;;;;;;;;;;;;;16.82;62.98;101441.84;2068019;28;19925;-69
2023/03/21 03:31:03;;;;;;;;;;;;;;;16.81;62.71;101436.78;2052080;28;19926;-69
2023/03/21 03:32:27;;;;;;;;;;;;;;;16.81;62.90;101434.03;2053701;28;19922;-69
2023/03/21 03:33:30;;;;;;;;;;;;;;;16.82;63.01;101441.06;2060868;28;20309;-70
2023/03/21 03:34:38;;;;;;;;;;;;;;;16.81;62.88;101429.34;2066623;28;19921;-69
2023/03/21 03:35:42;;;;;;;;;;;;;;;16.82;62.88;101441.06;2064191;28;19933;-70
2023/03/21 03:36:55;;;;;;;;;;;;;;;16.82;62.78;101435.59;2057392;28;19928;-70
2023/03/21 03:37:59;;;;;;;;;;;;;;;16.82;62.66;101432.88;2058241;28;20311;-72
2023/03/21 03:39:04;;;;;;;;;;;;;;;16.82;62.66;101436.41;2060221;28;20006;-72
2023/03/21 03:40:11;;;;;;;;;;;;;;;16.82;62.57;101436.41;2061905;28;19921;-72
2023/03/21 03:41:21;;;;;;;;;;;;;;;16.82;62.77;101432.88;2059666;28;20308;-72
2023/03/21 03:42:30;;;;;;;;;;;;;;;16.82;62.53;101424.69;2059166;28;19925;-72
2023/03/21 03:43:47;;;;;;;;;;;;;;;16.82;62.88;101432.88;2057175;28;19925;-72
2023/03/21 03:44:49;;;;;;;;;;;;;;;16.82;62.65;101428.22;2058116;28;19926;-72
2023/03/21 03:45:56;;;;;;;;;;;;;;;16.82;62.57;101419.25;2069731;28;20497;-73
2023/03/21 03:47:00;;;;;;;;;;;;;;;16.81;62.71;101432.09;2065138;28;20350;-72
2023/03/21 03:48:05;;;;;;;;;;;;;;;16.81;62.62;101423.13;2068874;28;19960;-72
2023/03/21 03:49:14;;;;;;;;;;;;;;;16.82;62.77;101413.78;2066720;28;19977;-73
2023/03/21 03:50:20;;;;;;;;;;;;;;;16.82;62.95;101420.03;2059916;28;20055;-72
2023/03/21 03:51:24;;;;;;;;;;;;;;;16.82;62.57;101425.50;2066491;28;19990;-72
2023/03/21 03:52:44;;;;;;;;;;;;;;;16.81;62.82;101423.13;2064693;28;20426;-72
2023/03/21 03:53:59;;;;;;;;;;;;;;;16.81;62.71;101418.44;2062858;28;19922;-72
2023/03/21 03:55:03;;;;;;;;;;;;;;;16.82;62.67;101421.97;2063175;28;20012;-72
2023/03/21 03:56:11;;;;;;;;;;;;;;;16.81;62.75;101417.69;2055596;28;20012;-73
2023/03/21 03:57:16;;;;;;;;;;;;;;;16.81;62.79;101423.91;2055051;28;19926;-72
2023/03/21 03:58:18;;;;;;;;;;;;;;;16.81;62.81;101420.41;2070883;28;19976;-73
2023/03/21 03:59:27;;;;;;;;;;;;;;;16.81;62.85;101415.72;2065388;28;19929;-72
2023/03/21 04:00:41;;;;;;;;;;;;;;;16.81;62.66;101417.69;2054461;28;19957;-72
2023/03/21 04:01:44;;;;;;;;;;;;;;;16.81;62.66;101417.69;2064097;28;20407;-72
2023/03/21 04:02:46;;;;;;;;;;;;;;;16.80;62.87;101414.16;2069481;28;19940;-73
2023/03/21 04:03:52;;;;;;;;;;;;;;;16.81;62.78;101418.44;2053866;28;19948;-73
2023/03/21 04:05:11;;;;;;;;;;;;;;;16.81;62.42;101412.22;2048143;28;19926;-72
2023/03/21 04:06:14;;;;;;;;;;;;;;;16.80;62.40;101413.38;2051180;28;20013;-72
2023/03/21 04:07:15;;;;;;;;;;;;;;;16.81;62.39;101406.78;2052283;28;19965;-73
2023/03/21 04:08:18;;;;;;;;;;;;;;;16.81;62.52;101409.50;2059670;28;19993;-73
2023/03/21 04:09:28;;;;;;;;;;;;;;;16.80;62.37;101405.97;2055605;28;19929;-73
2023/03/21 04:10:45;;;;;;;;;;;;;;;16.80;62.58;101416.09;2057621;28;19953;-73
2023/03/21 04:11:49;;;;;;;;;;;;;;;16.80;62.18;101416.09;2061933;28;19928;-69
2023/03/21 04:12:51;;;;;;;;;;;;;;;16.80;62.52;101411.44;2048915;28;19933;-70
2023/03/21 04:13:53;;;;;;;;;;;;;;;16.80;62.63;101414.16;2045092;28;19927;-69
2023/03/21 04:14:58;;;;;;;;;;;;;;;16.80;62.51;101410.63;2055093;28;20021;-69
2023/03/21 04:16:11;;;;;;;;;;;;;;;16.80;62.31;101419.63;2053046;28;19926;-69
2023/03/21 04:17:16;;;;;;;;;;;;;;;16.81;62.57;101423.13;2046919;28;19930;-69
2023/03/21 04:18:18;;;;;;;;;;;;;;;16.81;62.52;101413.00;2051414;28;19965;-70
2023/03/21 04:19:21;;;;;;;;;;;;;;;16.80;62.49;101416.09;2054319;28;19925;-70
2023/03/21 04:20:23;;;;;;;;;;;;;;;16.80;62.50;101410.63;2055595;28;19926;-70
2023/03/21 04:21:38;;;;;;;;;;;;;;;16.80;62.43;101407.91;2057546;28;19995;-70
2023/03/21 04:22:40;;;;;;;;;;;;;;;16.80;62.53;101413.38;2062046;28;19922;-69
2023/03/21 04:23:43;;;;;;;;;;;;;;;16.80;62.40;101411.44;2062777;28;19929;-70
2023/03/21 04:24:45;;;;;;;;;;;;;;;16.80;62.33;101408.72;2072439;28;20363;-70
2023/03/21 04:25:49;;;;;;;;;;;;;;;16.81;62.25;101409.50;2071159;28;19929;-70
2023/03/21 04:27:05;;;;;;;;;;;;;;;16.81;62.39;101406.78;2059645;28;20326;-70
2023/03/21 04:28:16;;;;;;;;;;;;;;;16.80;62.56;101411.44;2050726;28;19980;-69
2023/03/21 04:29:24;;;;;;;;;;;;;;;16.81;62.56;101412.22;2061225;28;19932;-70
2023/03/21 04:30:33;;;;;;;;;;;;;;;16.80;62.58;101410.63;2059639;28;20884;-69
2023/03/21 04:31:41;;;;;;;;;;;;;;;16.80;62.33;101411.44;2056693;28;19962;-69
2023/03/21 04:32:52;;;;;;;;;;;;;;;16.81;62.25;101412.22;2051101;28;19935;-70
2023/03/21 04:33:55;;;;;;;;;;;;;;;16.80;62.44;101410.63;2060847;28;19926;-70
2023/03/21 04:34:58;;;;;;;;;;;;;;;16.81;62.36;101417.69;2061264;28;19976;-70
2023/03/21 04:36:00;;;;;;;;;;;;;;;16.80;62.12;101413.38;2054722;28;19976;-70
2023/03/21 04:37:09;;;;;;;;;;;;;;;16.81;62.33;101417.69;2060639;28;19973;-70
2023/03/21 04:38:13;;;;;;;;;;;;;;;16.76;62.34;101404.38;2058529;28;19926;-73
2023/03/21 04:39:16;;;;;;;;;;;;;;;16.80;62.32;101416.09;2050643;28;19930;-73
2023/03/21 04:40:23;;;;;;;;;;;;;;;16.80;62.38;101405.19;2053752;28;19926;-73
2023/03/21 04:41:26;;;;;;;;;;;;;;;16.80;62.40;101413.38;2048487;28;19974;-73
2023/03/21 04:42:29;;;;;;;;;;;;;;;16.81;62.31;101414.97;2040013;28;19941;-73
2023/03/21 04:43:32;;;;;;;;;;;;;;;16.81;62.20;101398.59;2054145;28;20014;-73
2023/03/21 04:44:34;;;;;;;;;;;;;;;16.81;62.21;101406.78;2063668;28;19965;-73
2023/03/21 04:45:37;;;;;;;;;;;;;;;16.80;62.25;101405.97;2048319;28;19927;-73
2023/03/21 04:46:39;;;;;;;;;;;;;;;16.81;62.18;101406.78;2046575;28;19922;-73
2023/03/21 04:47:44;;;;;;;;;;;;;;;16.80;62.33;101405.19;2043998;29;20346;-73
2023/03/21 04:48:46;;;;;;;;;;;;;;;16.79;62.42;101409.84;2036636;28;19962;-73
2023/03/21 04:49:49;;;;;;;;;;;;;;;16.79;62.33;101398.94;2041234;29;19977;-73
2023/03/21 04:50:51;;;;;;;;;;;;;;;16.79;62.44;101396.22;2040271;29;19933;-73
2023/03/21 04:51:54;;;;;;;;;;;;;;;16.78;62.38;101402.81;2055366;28;20001;-74
2023/03/21 04:52:55;;;;;;;;;;;;;;;16.79;62.11;101398.16;2059015;28;20466;-72
2023/03/21 04:53:58;;;;;;;;;;;;;;;16.79;62.33;101401.66;2054797;28;19930;-72
2023/03/21 04:55:00;;;;;;;;;;;;;;;16.79;62.08;101388.03;2058941;28;20308;-73
2023/03/21 04:56:03;;;;;;;;;;;;;;;16.79;62.32;101396.22;2059231;28;20305;-72
2023/03/21 04:57:05;;;;;;;;;;;;;;;16.79;61.97;101393.47;2060227;28;19926;-72
2023/03/21 04:58:09;;;;;;;;;;;;;;;16.80;62.16;101388.81;2057554;28;19930;-73
2023/03/21 04:59:12;;;;;;;;;;;;;;;16.78;62.14;101388.41;2059433;28;19960;-72
2023/03/21 05:00:15;;;;;;;;;;;;;;;16.80;62.11;101388.81;2052463;28;19926;-72
2023/03/21 05:01:19;;;;;;;;;;;;;;;16.79;62.35;101384.53;2055362;28;19950;-72
2023/03/21 05:02:22;;;;;;;;;;;;;;;16.78;62.16;101381.00;2048704;29;19926;-73
2023/03/21 05:03:24;;;;;;;;;;;;;;;16.78;62.38;101381.00;2053475;28;20013;-72
2023/03/21 05:04:27;;;;;;;;;;;;;;;16.78;62.36;101382.94;2068897;28;19925;-73
2023/03/21 05:05:30;;;;;;;;;;;;;;;16.79;62.11;101387.25;2062578;28;20299;-72
2023/03/21 05:06:33;;;;;;;;;;;;;;;16.80;62.41;101380.63;2063788;28;20406;-72
2023/03/21 05:07:35;;;;;;;;;;;;;;;16.78;62.01;101378.28;2069905;28;20736;-73
2023/03/21 05:08:38;;;;;;;;;;;;;;;16.79;62.30;101381.81;2066928;28;19925;-72
2023/03/21 05:09:40;;;;;;;;;;;;;;;16.79;62.02;101387.25;2070162;28;19930;-72
2023/03/21 05:10:43;;;;;;;;;;;;;;;16.80;62.23;101380.63;2057419;28;19973;-72
2023/03/21 05:11:45;;;;;;;;;;;;;;;16.80;62.32;101383.38;2053406;28;19922;-72
2023/03/21 05:12:49;;;;;;;;;;;;;;;16.79;62.18;101388.03;2056740;28;19929;-72
2023/03/21 05:13:52;;;;;;;;;;;;;;;16.80;62.30;101386.09;2055085;28;19926;-72
2023/03/21 05:14:55;;;;;;;;;;;;;;;16.79;62.32;101377.13;2051420;28;20359;-72
2023/03/21 05:15:57;;;;;;;;;;;;;;;16.80;61.98;101380.63;2067866;28;19948;-72
2023/03/21 05:17:03;;;;;;;;;;;;;;;16.80;61.97;101383.38;2066226;28;19976;-72
2023/03/21 05:18:09;;;;;;;;;;;;;;;16.79;62.24;101381.81;2060797;28;20147;-73
2023/03/21 05:19:21;;;;;;;;;;;;;;;16.79;61.88;101376.34;2059566;28;20001;-72
2023/03/21 05:20:24;;;;;;;;;;;;;;;16.79;62.23;101382.56;2057440;28;19933;-72
2023/03/21 05:21:28;;;;;;;;;;;;;;;16.79;62.29;101381.81;2055609;28;19976;-72
2023/03/21 05:22:39;;;;;;;;;;;;;;;16.78;61.96;101380.22;2046335;28;19981;-72
2023/03/21 05:23:44;;;;;;;;;;;;;;;16.79;62.33;101384.53;2054350;28;20356;-72
2023/03/21 05:24:49;;;;;;;;;;;;;;;16.79;61.99;101379.09;2055788;28;20452;-72
2023/03/21 05:26:21;;;;;;;;;;;;;;;16.79;62.10;101379.09;2059097;28;20338;-72
2023/03/21 05:27:33;;;;;;;;;;;;;;;16.78;62.28;101378.28;2070398;28;20402;-72
2023/03/21 05:28:40;;;;;;;;;;;;;;;16.79;62.12;101376.34;2059497;28;19930;-72
2023/03/21 05:29:44;;;;;;;;;;;;;;;16.79;62.32;101379.09;2054831;28;20483;-73
2023/03/21 05:30:47;;;;;;;;;;;;;;;16.78;61.96;101375.56;2046757;28;19933;-73
2023/03/21 05:31:49;;;;;;;;;;;;;;;16.79;62.01;101379.84;2051151;28;20041;-73
2023/03/21 05:32:51;;;;;;;;;;;;;;;16.79;62.08;101382.56;2061593;28;19925;-73
2023/03/21 05:33:54;;;;;;;;;;;;;;;16.78;62.09;101378.28;2060356;28;19925;-74
2023/03/21 05:34:56;;;;;;;;;;;;;;;16.77;62.11;101374.00;2056372;28;20395;-73
2023/03/21 05:35:59;;;;;;;;;;;;;;;16.80;62.21;101377.91;2067146;28;20231;-73
2023/03/21 05:37:04;;;;;;;;;;;;;;;16.78;62.24;101375.56;2059651;28;19922;-73
2023/03/21 05:38:20;;;;;;;;;;;;;;;16.79;61.98;101381.81;2054874;28;19953;-72
2023/03/21 05:39:25;;;;;;;;;;;;;;;16.79;62.13;101376.34;2048494;28;19961;-72
2023/03/21 05:40:51;;;;;;;;;;;;;;;16.79;61.77;101379.84;2059324;28;20004;-73
2023/03/21 05:41:52;;;;;;;;;;;;;;;16.80;61.78;101377.91;2065540;28;21765;-73
2023/03/21 05:42:55;;;;;;;;;;;;;;;16.80;61.71;101375.19;2064981;28;19921;-73
2023/03/21 05:43:59;;;;;;;;;;;;;;;16.80;62.04;101377.91;2065833;28;19953;-73
2023/03/21 05:45:03;;;;;;;;;;;;;;;16.80;61.84;101375.19;2074498;28;20394;-71
2023/03/21 05:46:07;;;;;;;;;;;;;;;16.80;61.84;101373.25;2067266;28;20411;-73
2023/03/21 05:47:10;;;;;;;;;;;;;;;16.80;61.60;101375.97;2066789;28;20464;-72
2023/03/21 05:48:18;;;;;;;;;;;;;;;16.81;61.88;101368.59;2071478;28;19968;-73